createdAt,value
2023-01-22T00:00:11.272Z,7.3
2023-01-22T00:01:27.590Z,7.1
2023-01-22T00:02:43.865Z,6.5
2023-01-22T00:04:00.179Z,7.7
2023-01-22T00:05:16.465Z,6.9
2023-01-22T00:06:32.752Z,6.3
2023-01-22T00:07:49.055Z,7.7
2023-01-22T00:09:05.335Z,6.6
2023-01-22T00:10:21.641Z,6.5
2023-01-22T00:11:36.958Z,6.4
2023-01-22T00:12:53.244Z,6.7
2023-01-22T00:14:09.552Z,7
2023-01-22T00:15:25.835Z,7.9
2023-01-22T00:16:42.128Z,6.3
2023-01-22T00:17:58.417Z,8
2023-01-22T00:19:14.720Z,6.8
2023-01-22T00:20:31.014Z,6.7
2023-01-22T00:21:47.316Z,6.7
2023-01-22T00:23:03.592Z,7.9
2023-01-22T00:24:19.892Z,7.4
2023-01-22T00:25:36.200Z,6.9
2023-01-22T00:26:52.492Z,6.5
2023-01-22T00:28:07.801Z,7.7
2023-01-22T00:29:24.084Z,7.9
2023-01-22T00:30:40.393Z,6.4
2023-01-22T00:31:56.676Z,7.9
2023-01-22T00:33:12.970Z,8.2
2023-01-22T00:34:29.289Z,7.2
2023-01-22T00:35:45.567Z,7.6
2023-01-22T00:37:01.871Z,7.5
2023-01-22T00:38:18.165Z,6.4
2023-01-22T00:39:34.458Z,7.1
2023-01-22T00:40:50.759Z,7.8
2023-01-22T00:42:07.046Z,7.3
2023-01-22T00:43:23.325Z,7.8
2023-01-22T00:44:38.647Z,7.3
2023-01-22T00:45:54.929Z,7
2023-01-22T00:47:11.220Z,8.3
2023-01-22T00:48:27.529Z,7.3
2023-01-22T00:49:43.824Z,7.7
2023-01-22T00:51:00.135Z,7.5
2023-01-22T00:52:16.400Z,7.9
2023-01-22T00:53:32.706Z,7.8
2023-01-22T00:54:48.993Z,7
2023-01-22T00:56:05.287Z,7.2
2023-01-22T00:57:21.592Z,7.6
2023-01-22T00:58:37.887Z,8.3
2023-01-22T00:59:54.187Z,8.2
2023-01-22T01:01:09.480Z,7.2
2023-01-22T01:02:25.780Z,7.7
2023-01-22T01:03:42.076Z,7.8
2023-01-22T01:04:58.375Z,8.3
2023-01-22T01:06:14.674Z,7.8
2023-01-22T01:07:30.966Z,6.9
2023-01-22T01:08:47.261Z,8.9
2023-01-22T01:10:03.541Z,7.1
2023-01-22T01:12:36.144Z,9.4
2023-01-22T01:13:52.437Z,6.7
2023-01-22T01:15:08.738Z,7.3
2023-01-22T01:16:25.018Z,7.3
2023-01-22T01:17:40.327Z,7.1
2023-01-22T01:18:56.635Z,6.3
2023-01-22T01:20:12.923Z,6.8
2023-01-22T01:21:29.228Z,7.2
2023-01-22T01:22:45.517Z,6.6
2023-01-22T01:24:01.800Z,7.1
2023-01-22T01:25:18.092Z,6.8
2023-01-22T01:26:34.407Z,7.3
2023-01-22T01:27:50.697Z,6.8
2023-01-22T01:29:06.981Z,6.5
2023-01-22T01:30:23.292Z,8
2023-01-22T01:31:39.587Z,8.7
2023-01-22T01:32:55.879Z,8
2023-01-22T01:34:11.193Z,7
2023-01-22T01:35:27.491Z,8.1
2023-01-22T01:36:43.768Z,7.7
2023-01-22T01:38:00.072Z,8.2
2023-01-22T01:39:16.352Z,6.3
2023-01-22T01:40:32.658Z,7.7
2023-01-22T01:41:48.967Z,7.9
2023-01-22T01:43:05.256Z,7.4
2023-01-22T01:44:21.558Z,7.3
2023-01-22T01:45:37.845Z,6.8
2023-01-22T01:46:54.145Z,6.5
2023-01-22T01:48:10.441Z,7.7
2023-01-22T01:49:26.708Z,7.2
2023-01-22T01:50:42.014Z,6.4
2023-01-22T01:51:58.321Z,7.5
2023-01-22T01:53:14.624Z,7.1
2023-01-22T01:54:30.913Z,7.6
2023-01-22T01:55:47.194Z,6.3
2023-01-22T01:57:02.522Z,6.1
2023-01-22T01:58:18.827Z,6.9
2023-01-22T01:59:35.122Z,6.9
2023-01-22T02:00:51.392Z,6.6
2023-01-22T02:02:07.702Z,6.7
2023-01-22T02:03:23.994Z,6.6
2023-01-22T02:04:40.290Z,7.8
2023-01-22T02:05:56.577Z,6.2
2023-01-22T02:07:12.890Z,6.1
2023-01-22T02:08:29.175Z,6.2
2023-01-22T02:09:45.470Z,5.9
2023-01-22T02:11:01.757Z,6.9
2023-01-22T02:12:18.047Z,6.4
2023-01-22T02:13:33.362Z,6.7
2023-01-22T02:14:49.661Z,7.2
2023-01-22T02:16:05.949Z,6.3
2023-01-22T02:17:22.249Z,7.1
2023-01-22T02:18:38.544Z,6.5
2023-01-22T02:19:54.832Z,6.5
2023-01-22T02:21:11.143Z,6.6
2023-01-22T02:22:27.430Z,6.1
2023-01-22T02:23:43.727Z,5.8
2023-01-22T02:25:00.032Z,6.7
2023-01-22T02:26:16.299Z,6.4
2023-01-22T02:27:32.605Z,6.6
2023-01-22T02:28:48.908Z,6.8
2023-01-22T02:30:04.214Z,6.8
2023-01-22T02:31:20.496Z,6.4
2023-01-22T02:32:36.790Z,6.1
2023-01-22T02:33:53.099Z,7.6
2023-01-22T02:35:09.385Z,7.3
2023-01-22T02:36:25.701Z,5.9
2023-01-22T02:37:41.985Z,6.7
2023-01-22T02:38:58.282Z,6.6
2023-01-22T02:40:14.558Z,6.4
2023-01-22T02:41:30.872Z,6.9
2023-01-22T02:42:47.159Z,7.4
2023-01-22T02:44:03.463Z,6
2023-01-22T02:45:19.763Z,6.1
2023-01-22T02:46:36.044Z,7.4
2023-01-22T02:47:51.355Z,6.2
2023-01-22T02:49:07.654Z,6.6
2023-01-22T02:50:23.931Z,6.9
2023-01-22T02:51:40.225Z,6.6
2023-01-22T02:52:56.525Z,6.3
2023-01-22T02:54:12.827Z,6.1
2023-01-22T02:55:29.115Z,6
2023-01-22T02:56:45.420Z,6.8
2023-01-22T02:58:01.710Z,7.2
2023-01-22T02:59:18.007Z,7
2023-01-22T03:00:34.292Z,6.9
2023-01-22T03:01:50.606Z,6.7
2023-01-22T03:03:06.875Z,7.1
2023-01-22T03:04:22.197Z,7.2
2023-01-22T03:05:38.478Z,7.1
2023-01-22T03:06:54.777Z,7.4
2023-01-22T03:08:11.070Z,6.9
2023-01-22T03:09:27.387Z,6.8
2023-01-22T03:10:43.658Z,6.6
2023-01-22T03:11:59.955Z,6.8
2023-01-22T03:13:16.256Z,6.8
2023-01-22T03:14:32.544Z,6.8
2023-01-22T03:15:48.835Z,6
2023-01-22T03:17:05.151Z,7.6
2023-01-22T03:18:21.440Z,6.4
2023-01-22T03:19:37.731Z,7.9
2023-01-22T03:20:53.033Z,6.8
2023-01-22T03:22:09.330Z,7.2
2023-01-22T03:23:25.636Z,6.9
2023-01-22T03:24:41.933Z,6.6
2023-01-22T03:25:58.238Z,6.6
2023-01-22T03:27:14.000Z,6.6
2023-01-22T03:28:30.820Z,7.7
2023-01-22T03:29:47.101Z,7.2
2023-01-22T03:31:03.393Z,7.3
2023-01-22T03:32:19.701Z,6.5
2023-01-22T03:33:35.995Z,6.8
2023-01-22T03:34:52.281Z,7.4
2023-01-22T03:36:08.575Z,8.2
2023-01-22T03:37:23.883Z,6.7
2023-01-22T03:38:40.175Z,7.1
2023-01-22T03:39:56.468Z,7.8
2023-01-22T03:41:12.781Z,6.4
2023-01-22T03:42:29.084Z,6.9
2023-01-22T03:43:45.369Z,7
2023-01-22T03:45:01.668Z,6.7
2023-01-22T03:46:17.943Z,7.6
2023-01-22T03:47:34.254Z,7.3
2023-01-22T03:48:50.547Z,6.8
2023-01-22T03:50:06.856Z,6.4
2023-01-22T03:51:23.137Z,7
2023-01-22T03:52:39.434Z,7.7
2023-01-22T03:53:54.740Z,7.6
2023-01-22T03:55:11.021Z,7.5
2023-01-22T03:56:27.329Z,7.4
2023-01-22T03:57:43.622Z,6.1
2023-01-22T03:58:59.909Z,6.8
2023-01-22T04:00:16.215Z,7.7
2023-01-22T04:01:32.513Z,7.7
2023-01-22T04:02:48.811Z,6.8
2023-01-22T04:04:05.100Z,6.8
2023-01-22T04:05:21.407Z,6.4
2023-01-22T04:06:37.688Z,6.9
2023-01-22T04:07:53.966Z,6.2
2023-01-22T04:09:10.293Z,7.5
2023-01-22T04:10:25.602Z,7.1
2023-01-22T04:11:41.868Z,8
2023-01-22T04:12:58.164Z,7.4
2023-01-22T04:14:14.455Z,7.4
2023-01-22T04:15:30.750Z,7.3
2023-01-22T04:16:47.062Z,8.3
2023-01-22T04:18:03.362Z,7.3
2023-01-22T04:19:19.640Z,7.5
2023-01-22T04:20:35.951Z,6.8
2023-01-22T04:21:52.225Z,7
2023-01-22T04:23:08.551Z,6.8
2023-01-22T04:24:24.841Z,6.5
2023-01-22T04:25:41.113Z,7.3
2023-01-22T04:26:56.446Z,7.5
2023-01-22T04:28:12.716Z,7.5
2023-01-22T04:29:29.008Z,7
2023-01-22T04:30:45.319Z,6.9
2023-01-22T04:32:01.000Z,7.8
2023-01-22T04:33:17.920Z,7.1
2023-01-22T04:34:34.199Z,7.8
2023-01-22T04:35:50.492Z,7.7
2023-01-22T04:37:06.804Z,7.7
2023-01-22T04:38:23.087Z,6.5
2023-01-22T04:39:39.392Z,6.9
2023-01-22T04:40:55.669Z,7.6
2023-01-22T04:42:11.975Z,8.5
2023-01-22T04:43:27.288Z,7.9
2023-01-22T04:44:43.569Z,7.6
2023-01-22T04:45:59.876Z,8.5
2023-01-22T04:47:16.149Z,7.6
2023-01-22T04:48:32.449Z,6.4
2023-01-22T04:49:48.746Z,7.5
2023-01-22T04:51:05.046Z,8.3
2023-01-22T04:53:37.627Z,8.2
2023-01-22T04:54:53.937Z,7.3
2023-01-22T04:56:10.234Z,8.2
2023-01-22T04:57:26.527Z,8.3
2023-01-22T04:58:42.000Z,8.3
2023-01-22T04:59:58.113Z,8.1
2023-01-22T05:01:14.422Z,7.8
2023-01-22T05:02:30.728Z,8.8
2023-01-22T05:03:47.003Z,8
2023-01-22T05:05:03.305Z,8.1
2023-01-22T05:06:19.602Z,7.4
2023-01-22T05:07:35.896Z,7.2
2023-01-22T05:08:52.177Z,8.4
2023-01-22T05:10:08.496Z,7.7
2023-01-22T05:11:24.764Z,9.2
2023-01-22T05:12:41.068Z,8.3
2023-01-22T05:13:57.375Z,8.3
2023-01-22T05:15:13.670Z,8.1
2023-01-22T05:16:28.971Z,8.9
2023-01-22T05:17:45.281Z,7.3
2023-01-22T05:19:01.573Z,8.2
2023-01-22T05:20:17.850Z,7.9
2023-01-22T05:21:34.150Z,7.9
2023-01-22T05:22:50.447Z,9.7
2023-01-22T05:24:06.728Z,8.9
2023-01-22T05:25:23.032Z,9.7
2023-01-22T05:26:39.342Z,8.7
2023-01-22T05:27:55.640Z,8.7
2023-01-22T05:29:11.906Z,9.2
2023-01-22T05:30:28.201Z,8.1
2023-01-22T05:31:44.495Z,8.8
2023-01-22T05:32:59.827Z,8.8
2023-01-22T05:34:16.113Z,8.6
2023-01-22T05:35:32.408Z,9.3
2023-01-22T05:36:48.723Z,8.6
2023-01-22T05:38:04.991Z,9.6
2023-01-22T05:39:21.304Z,8
2023-01-22T05:40:37.595Z,8.8
2023-01-22T05:41:53.875Z,9.1
2023-01-22T05:43:10.173Z,7.6
2023-01-22T05:44:26.479Z,8.4
2023-01-22T05:45:42.769Z,9.1
2023-01-22T05:46:59.065Z,8.5
2023-01-22T05:48:15.350Z,7.9
2023-01-22T05:49:30.674Z,8.1
2023-01-22T05:50:46.954Z,8.7
2023-01-22T05:52:03.259Z,7.8
2023-01-22T05:53:19.545Z,8.6
2023-01-22T05:54:35.830Z,8.9
2023-01-22T05:55:52.125Z,8.6
2023-01-22T05:57:08.445Z,8.7
2023-01-22T05:58:24.739Z,9.1
2023-01-22T05:59:41.029Z,9.2
2023-01-22T06:00:57.326Z,8.5
2023-01-22T06:02:13.626Z,9.2
2023-01-22T06:03:29.897Z,8.7
2023-01-22T06:04:46.191Z,8.7
2023-01-22T06:06:01.507Z,9
2023-01-22T06:07:17.820Z,8.7
2023-01-22T06:08:34.090Z,10.3
2023-01-22T06:09:50.405Z,9.5
2023-01-22T06:11:06.690Z,9.2
2023-01-22T06:12:22.019Z,9.2
2023-01-22T06:13:38.317Z,9.9
2023-01-22T06:14:54.613Z,8.9
2023-01-22T06:16:10.882Z,10.4
2023-01-22T06:17:27.195Z,9.3
2023-01-22T06:18:43.479Z,9.8
2023-01-22T06:19:59.768Z,9.6
2023-01-22T06:21:16.073Z,10.6
2023-01-22T06:22:32.353Z,10.3
2023-01-22T06:23:48.647Z,9.4
2023-01-22T06:25:04.952Z,9.2
2023-01-22T06:26:21.243Z,11.3
2023-01-22T06:27:37.552Z,10
2023-01-22T06:28:52.862Z,9.4
2023-01-22T06:30:09.152Z,10.3
2023-01-22T06:31:25.435Z,9.1
2023-01-22T06:32:41.682Z,10.2
2023-01-22T06:33:57.971Z,10.4
2023-01-22T06:35:14.262Z,10.6
2023-01-22T06:36:30.520Z,9.9
2023-01-22T06:37:46.753Z,9.7
2023-01-22T06:39:03.056Z,10.4
2023-01-22T06:40:19.353Z,11.3
2023-01-22T06:41:35.595Z,10
2023-01-22T06:42:51.861Z,9.9
2023-01-22T06:44:08.082Z,11.3
2023-01-22T06:45:23.362Z,10.2
2023-01-22T06:46:39.585Z,11.3
2023-01-22T06:47:55.838Z,10.3
2023-01-22T06:49:12.056Z,10.5
2023-01-22T06:50:28.300Z,10.6
2023-01-22T06:51:44.546Z,12.2
2023-01-22T06:53:00.785Z,10.1
2023-01-22T06:54:17.028Z,11.3
2023-01-22T06:55:33.285Z,11.7
2023-01-22T06:56:49.499Z,10.9
2023-01-22T06:58:05.741Z,10.5
2023-01-22T06:59:22.000Z,11.6
2023-01-22T07:00:38.227Z,12.1
2023-01-22T07:01:53.492Z,10.5
2023-01-22T07:03:09.736Z,11.2
2023-01-22T07:04:25.970Z,11.7
2023-01-22T07:05:42.200Z,11.4
2023-01-22T07:06:58.464Z,11.8
2023-01-22T07:08:14.707Z,11.1
2023-01-22T07:09:30.950Z,13.6
2023-01-22T07:10:47.184Z,11.7
2023-01-22T07:12:03.433Z,11.5
2023-01-22T07:13:19.666Z,10.8
2023-01-22T07:14:35.896Z,12.1
2023-01-22T07:15:52.127Z,11.6
2023-01-22T07:17:08.386Z,12.8
2023-01-22T07:18:23.629Z,10.5
2023-01-22T07:19:39.889Z,11.1
2023-01-22T07:20:56.000Z,11.3
2023-01-22T07:22:12.362Z,11.1
2023-01-22T07:23:28.598Z,11.6
2023-01-22T07:24:44.845Z,11.4
2023-01-22T07:26:01.080Z,11.2
2023-01-22T07:27:17.333Z,12.8
2023-01-22T07:28:33.566Z,11.7
2023-01-22T07:29:49.807Z,11.5
2023-01-22T07:31:06.036Z,11.5
2023-01-22T07:32:22.288Z,12.8
2023-01-22T07:33:38.524Z,11.4
2023-01-22T07:34:53.768Z,12.6
2023-01-22T07:36:10.024Z,12.4
2023-01-22T07:37:26.274Z,12.5
2023-01-22T07:38:42.508Z,12.6
2023-01-22T07:39:58.738Z,11.3
2023-01-22T07:41:15.004Z,12.8
2023-01-22T07:42:31.225Z,11.4
2023-01-22T07:43:47.482Z,13.1
2023-01-22T07:45:03.710Z,13.5
2023-01-22T07:46:19.958Z,13.5
2023-01-22T07:47:36.173Z,11.9
2023-01-22T07:48:52.451Z,13.8
2023-01-22T07:50:08.670Z,13.3
2023-01-22T07:51:23.933Z,12.9
2023-01-22T07:52:40.189Z,13.6
2023-01-22T07:53:56.417Z,13.5
2023-01-22T07:55:12.646Z,12.9
2023-01-22T07:56:28.899Z,13.2
2023-01-22T07:57:45.133Z,13.4
2023-01-22T07:59:01.379Z,13.6
2023-01-22T08:00:17.606Z,13.4
2023-01-22T08:01:33.846Z,13.3
2023-01-22T08:02:50.095Z,13.1
2023-01-22T08:04:06.334Z,14.7
2023-01-22T08:05:22.569Z,12.9
2023-01-22T08:06:38.814Z,15
2023-01-22T08:07:54.055Z,14.4
2023-01-22T08:09:10.318Z,13.6
2023-01-22T08:10:26.560Z,14
2023-01-22T08:11:42.779Z,15.6
2023-01-22T08:12:59.038Z,13.3
2023-01-22T08:14:15.276Z,13.9
2023-01-22T08:15:31.500Z,14.1
2023-01-22T08:16:47.739Z,16
2023-01-22T08:18:03.981Z,14
2023-01-22T08:19:20.226Z,13.8
2023-01-22T08:20:36.486Z,13
2023-01-22T08:21:52.709Z,14.4
2023-01-22T08:23:08.962Z,12.5
2023-01-22T08:24:24.225Z,12.5
2023-01-22T08:25:40.445Z,11.8
2023-01-22T08:26:56.692Z,11.5
2023-01-22T08:28:12.930Z,12
2023-01-22T08:29:29.191Z,12.6
2023-01-22T08:30:45.410Z,11.8
2023-01-22T08:32:01.673Z,12.7
2023-01-22T08:33:17.886Z,10.8
2023-01-22T08:34:34.156Z,12.1
2023-01-22T08:35:50.370Z,11.6
2023-01-22T08:37:06.632Z,10.8
2023-01-22T08:38:22.851Z,11.7
2023-01-22T08:39:39.123Z,11.5
2023-01-22T08:40:54.358Z,10.6
2023-01-22T08:42:10.605Z,11
2023-01-22T08:43:26.834Z,11
2023-01-22T08:44:43.097Z,12.3
2023-01-22T08:45:59.325Z,11.6
2023-01-22T08:47:15.566Z,11.5
2023-01-22T08:48:31.818Z,11.1
2023-01-22T08:49:48.031Z,11.5
2023-01-22T08:51:04.270Z,11.2
2023-01-22T08:52:20.520Z,11.6
2023-01-22T08:53:36.785Z,12
2023-01-22T08:54:52.997Z,11.6
2023-01-22T08:56:09.250Z,11.9
2023-01-22T08:57:24.491Z,11.9
2023-01-22T08:58:40.739Z,12.7
2023-01-22T08:59:56.990Z,12.8
2023-01-22T09:01:13.236Z,12.1
2023-01-22T09:02:29.459Z,12.3
2023-01-22T09:03:45.708Z,12.1
2023-01-22T09:05:01.937Z,11.1
2023-01-22T09:06:18.176Z,11.6
2023-01-22T09:07:34.419Z,12.7
2023-01-22T09:08:50.664Z,11.7
2023-01-22T09:10:06.900Z,11.6
2023-01-22T09:11:23.141Z,12.6
2023-01-22T09:12:39.396Z,12.2
2023-01-22T09:13:54.649Z,12
2023-01-22T09:15:10.891Z,13.9
2023-01-22T09:16:27.145Z,11.8
2023-01-22T09:17:43.379Z,12.8
2023-01-22T09:18:59.601Z,11.6
2023-01-22T09:20:15.842Z,14.5
2023-01-22T09:21:32.092Z,14.6
2023-01-22T09:22:48.329Z,13.7
2023-01-22T09:24:04.578Z,10.9
2023-01-22T09:25:20.819Z,14.2
2023-01-22T09:26:37.041Z,12.9
2023-01-22T09:27:53.283Z,14.2
2023-01-22T09:29:09.552Z,13.7
2023-01-22T09:30:24.802Z,14.4
2023-01-22T09:31:41.019Z,12.7
2023-01-22T09:32:57.285Z,12.8
2023-01-22T09:34:13.506Z,13.8
2023-01-22T09:35:29.764Z,15
2023-01-22T09:36:45.985Z,13.3
2023-01-22T09:38:02.229Z,15.6
2023-01-22T09:39:18.466Z,12.2
2023-01-22T09:40:34.707Z,14.4
2023-01-22T09:41:50.952Z,13
2023-01-22T09:43:07.211Z,12
2023-01-22T09:44:23.460Z,13.2
2023-01-22T09:45:39.677Z,13.4
2023-01-22T09:46:54.931Z,13.6
2023-01-22T09:48:11.186Z,12.8
2023-01-22T09:49:27.406Z,13.8
2023-01-22T09:50:43.655Z,14.2
2023-01-22T09:51:59.906Z,13.6
2023-01-22T09:53:16.160Z,12.7
2023-01-22T09:54:32.390Z,13.1
2023-01-22T09:55:48.631Z,14
2023-01-22T09:57:04.857Z,13.9
2023-01-22T09:58:21.127Z,13.1
2023-01-22T09:59:37.331Z,13.3
2023-01-22T10:00:53.574Z,13.5
2023-01-22T10:02:09.846Z,12.5
2023-01-22T10:03:25.068Z,12.2
2023-01-22T10:04:41.320Z,12.4
2023-01-22T10:05:57.557Z,14.5
2023-01-22T10:07:13.811Z,22.7
2023-01-22T10:08:30.050Z,24.7
2023-01-22T10:09:46.296Z,34.5
2023-01-22T10:11:02.520Z,24.6
2023-01-22T10:12:18.756Z,27.1
2023-01-22T10:13:34.996Z,24.2
2023-01-22T10:14:51.237Z,33
2023-01-22T10:16:07.494Z,24
2023-01-22T10:17:23.744Z,20.9
2023-01-22T10:18:39.966Z,18.7
2023-01-22T10:19:55.219Z,18.1
2023-01-22T10:21:11.471Z,17.7
2023-01-22T10:22:27.720Z,18.2
2023-01-22T10:23:43.969Z,15.7
2023-01-22T10:25:00.178Z,15.5
2023-01-22T10:26:16.435Z,16
2023-01-22T10:28:47.938Z,20.5
2023-01-22T10:30:03.216Z,16.6
2023-01-22T10:31:19.447Z,16.4
2023-01-22T10:32:35.675Z,19.5
2023-01-22T10:33:51.923Z,22.6
2023-01-22T10:35:08.148Z,29.7
2023-01-22T10:36:24.382Z,31.8
2023-01-22T10:37:40.633Z,20.2
2023-01-22T10:38:56.869Z,23.9
2023-01-22T10:40:13.127Z,42.3
2023-01-22T10:41:29.345Z,34.7
2023-01-22T10:42:45.588Z,21.1
2023-01-22T10:44:01.833Z,18.1
2023-01-22T10:45:18.100Z,33.7
2023-01-22T10:46:33.353Z,36
2023-01-22T10:47:49.589Z,22.2
2023-01-22T10:49:05.829Z,22.8
2023-01-22T10:50:22.054Z,77.6
2023-01-22T10:51:38.291Z,69.7
2023-01-22T10:52:54.548Z,39.1
2023-01-22T10:54:10.768Z,78.9
2023-01-22T10:55:27.028Z,76
2023-01-22T10:56:43.250Z,63.4
2023-01-22T10:57:59.504Z,26.1
2023-01-22T10:59:15.751Z,44.9
2023-01-22T11:00:31.971Z,100
2023-01-22T11:01:48.218Z,46.3
2023-01-22T11:03:03.488Z,42.1
2023-01-22T11:04:19.716Z,43.7
2023-01-22T11:05:35.953Z,25.6
2023-01-22T11:06:52.194Z,52
2023-01-22T11:08:08.451Z,59.9
2023-01-22T11:09:24.697Z,68
2023-01-22T11:10:40.934Z,41.8
2023-01-22T11:11:57.174Z,47
2023-01-22T11:13:13.393Z,68.9
2023-01-22T11:14:29.665Z,62.3
2023-01-22T11:15:45.906Z,30.8
2023-01-22T11:17:02.117Z,40.8
2023-01-22T11:18:18.390Z,34.7
2023-01-22T11:19:33.634Z,28.7
2023-01-22T11:20:49.868Z,28.2
2023-01-22T11:22:06.127Z,36.2
2023-01-22T11:23:22.352Z,28
2023-01-22T11:24:38.610Z,27.8
2023-01-22T11:25:54.822Z,23.8
2023-01-22T11:27:11.066Z,41.5
2023-01-22T11:28:27.302Z,32
2023-01-22T11:29:43.539Z,27.1
2023-01-22T11:30:59.793Z,21
2023-01-22T11:32:16.023Z,30.4
2023-01-22T11:33:32.257Z,27.6
2023-01-22T11:34:48.509Z,33.2
2023-01-22T11:36:03.773Z,27.4
2023-01-22T11:37:19.997Z,64.7
2023-01-22T11:38:36.239Z,67.7
2023-01-22T11:39:52.480Z,44.1
2023-01-22T11:41:08.737Z,38
2023-01-22T11:42:24.986Z,52
2023-01-22T11:43:41.222Z,59.9
2023-01-22T11:44:57.476Z,47.5
2023-01-22T11:46:13.710Z,57.9
2023-01-22T11:47:29.940Z,58.3
2023-01-22T11:48:46.161Z,102.5
2023-01-22T11:50:02.401Z,81.4
2023-01-22T11:51:18.666Z,86.9
2023-01-22T11:52:33.914Z,48
2023-01-22T11:53:50.142Z,41.5
2023-01-22T11:55:06.422Z,34.1
2023-01-22T11:56:22.655Z,36.3
2023-01-22T11:57:38.887Z,42.7
2023-01-22T11:58:55.143Z,32.1
2023-01-22T12:00:11.364Z,42.2
2023-01-22T12:01:27.588Z,41.9
2023-01-22T12:02:43.830Z,59.5
2023-01-22T12:04:00.094Z,41.1
2023-01-22T12:05:16.329Z,49.8
2023-01-22T12:06:32.559Z,43.8
2023-01-22T12:07:48.792Z,55.8
2023-01-22T12:09:04.071Z,71.1
2023-01-22T12:10:20.288Z,48.4
2023-01-22T12:11:36.545Z,44.4
2023-01-22T12:12:52.792Z,30.5
2023-01-22T12:14:09.013Z,29.6
2023-01-22T12:15:25.256Z,22.1
2023-01-22T12:16:41.491Z,42.9
2023-01-22T12:17:57.729Z,29.6
2023-01-22T12:19:13.998Z,35.7
2023-01-22T12:20:30.220Z,31.6
2023-01-22T12:21:46.000Z,33.9
2023-01-22T12:23:02.695Z,40.5
2023-01-22T12:24:18.944Z,49.4
2023-01-22T12:25:34.225Z,26.5
2023-01-22T12:26:50.436Z,43.4
2023-01-22T12:28:06.698Z,35.9
2023-01-22T12:29:22.933Z,44.5
2023-01-22T12:30:39.152Z,81.5
2023-01-22T12:31:55.424Z,57.4
2023-01-22T12:33:11.664Z,53.5
2023-01-22T12:34:27.900Z,69.9
2023-01-22T12:35:44.125Z,89.1
2023-01-22T12:37:00.363Z,50.6
2023-01-22T12:38:16.607Z,84.3
2023-01-22T12:39:32.857Z,48.5
2023-01-22T12:40:49.097Z,48.3
2023-01-22T12:42:04.347Z,64.9
2023-01-22T12:43:20.574Z,89.2
2023-01-22T12:44:36.842Z,53.5
2023-01-22T12:45:53.062Z,69.1
2023-01-22T12:47:09.319Z,67.7
2023-01-22T12:48:25.537Z,63.6
2023-01-22T12:49:41.794Z,46.9
2023-01-22T12:50:58.047Z,38
2023-01-22T12:52:14.281Z,50.4
2023-01-22T12:53:30.537Z,53.9
2023-01-22T12:54:46.763Z,49.1
2023-01-22T12:56:03.010Z,39.1
2023-01-22T12:57:19.232Z,49.4
2023-01-22T12:58:34.488Z,39.1
2023-01-22T12:59:50.743Z,72.5
2023-01-22T13:01:06.963Z,51.6
2023-01-22T13:02:23.205Z,52.9
2023-01-22T13:03:39.464Z,52.4
2023-01-22T13:04:55.694Z,61.1
2023-01-22T13:06:11.927Z,168.7
2023-01-22T13:07:28.163Z,94.9
2023-01-22T13:08:44.412Z,95.1
2023-01-22T13:10:00.664Z,56.2
2023-01-22T13:11:16.909Z,116
2023-01-22T13:12:33.138Z,60.5
2023-01-22T13:13:49.385Z,61
2023-01-22T13:15:04.649Z,45.8
2023-01-22T13:16:20.868Z,39
2023-01-22T13:17:37.128Z,47.1
2023-01-22T13:18:53.347Z,42.2
2023-01-22T13:20:09.585Z,25.5
2023-01-22T13:21:25.846Z,35
2023-01-22T13:22:42.103Z,36.1
2023-01-22T13:23:58.317Z,54.2
2023-01-22T13:25:14.563Z,44.9
2023-01-22T13:26:30.788Z,37.4
2023-01-22T13:27:47.054Z,37.8
2023-01-22T13:29:03.281Z,31.2
2023-01-22T13:30:19.512Z,63.8
2023-01-22T13:31:34.766Z,53.5
2023-01-22T13:32:51.028Z,121.7
2023-01-22T13:34:07.248Z,55
2023-01-22T13:35:23.500Z,30.5
2023-01-22T13:36:39.728Z,26.8
2023-01-22T13:37:55.981Z,33.1
2023-01-22T13:39:12.235Z,41.3
2023-01-22T13:40:28.452Z,45
2023-01-22T13:41:44.710Z,48.7
2023-01-22T13:43:00.946Z,63
2023-01-22T13:44:17.193Z,49.7
2023-01-22T13:45:33.414Z,41.3
2023-01-22T13:46:49.663Z,81.4
2023-01-22T13:48:04.921Z,80.2
2023-01-22T13:49:21.161Z,64.8
2023-01-22T13:50:37.416Z,93.5
2023-01-22T13:51:53.649Z,71.8
2023-01-22T13:53:09.891Z,75
2023-01-22T13:54:26.126Z,27.6
2023-01-22T13:55:42.361Z,82.1
2023-01-22T13:56:58.601Z,55.8
2023-01-22T13:58:14.837Z,54
2023-01-22T13:59:31.084Z,41.6
2023-01-22T14:00:47.317Z,52
2023-01-22T14:02:03.566Z,56.1
2023-01-22T14:03:19.815Z,47.4
2023-01-22T14:04:35.074Z,37
2023-01-22T14:05:51.299Z,38.5
2023-01-22T14:07:07.551Z,32.3
2023-01-22T14:08:23.790Z,38.9
2023-01-22T14:09:40.023Z,30.7
2023-01-22T14:10:56.268Z,39.2
2023-01-22T14:12:12.516Z,36.9
2023-01-22T14:13:28.741Z,28.5
2023-01-22T14:14:45.006Z,28.6
2023-01-22T14:16:01.232Z,22.9
2023-01-22T14:17:17.475Z,22.8
2023-01-22T14:18:33.702Z,20.4
2023-01-22T14:19:49.961Z,20.8
2023-01-22T14:21:05.208Z,19.4
2023-01-22T14:22:21.447Z,20.1
2023-01-22T14:23:37.693Z,18.5
2023-01-22T14:24:53.932Z,27.9
2023-01-22T14:26:10.173Z,28.3
2023-01-22T14:27:26.412Z,21.5
2023-01-22T14:28:42.657Z,21.2
2023-01-22T14:29:58.902Z,24.5
2023-01-22T14:31:15.138Z,25.2
2023-01-22T14:32:31.378Z,26.4
2023-01-22T14:33:47.615Z,22.9
2023-01-22T14:35:03.855Z,21.2
2023-01-22T14:36:20.097Z,22
2023-01-22T14:37:35.353Z,25.2
2023-01-22T14:38:51.000Z,33.1
2023-01-22T14:40:07.834Z,23.3
2023-01-22T14:41:24.083Z,22.6
2023-01-22T14:42:40.309Z,25.4
2023-01-22T14:43:56.551Z,31.1
2023-01-22T14:45:11.812Z,18.8
2023-01-22T14:46:28.054Z,22
2023-01-22T14:47:44.312Z,22.9
2023-01-22T14:49:00.555Z,26.2
2023-01-22T14:50:16.790Z,26.1
2023-01-22T14:51:33.025Z,22.6
2023-01-22T14:52:49.262Z,21
2023-01-22T14:54:05.505Z,19.8
2023-01-22T14:55:21.756Z,18.5
2023-01-22T14:56:37.983Z,18.7
2023-01-22T14:57:54.224Z,25.6
2023-01-22T14:59:10.462Z,26.6
2023-01-22T15:00:26.714Z,33.1
2023-01-22T15:01:41.960Z,26.6
2023-01-22T15:02:58.195Z,34.2
2023-01-22T15:04:14.450Z,48.2
2023-01-22T15:05:30.691Z,53.6
2023-01-22T15:06:46.931Z,42.5
2023-01-22T15:08:03.160Z,29.6
2023-01-22T15:09:19.411Z,20
2023-01-22T15:10:35.649Z,23.2
2023-01-22T15:11:51.879Z,41.3
2023-01-22T15:13:08.125Z,36.9
2023-01-22T15:14:24.376Z,21.4
2023-01-22T15:15:40.620Z,19.2
2023-01-22T15:16:56.854Z,18.7
2023-01-22T15:18:12.118Z,19.9
2023-01-22T15:19:28.357Z,17.8
2023-01-22T15:20:44.588Z,19.4
2023-01-22T15:22:00.824Z,17.1
2023-01-22T15:23:17.075Z,23.3
2023-01-22T15:24:33.307Z,30.9
2023-01-22T15:25:49.562Z,36.2
2023-01-22T15:27:05.785Z,22.3
2023-01-22T15:28:22.025Z,28
2023-01-22T15:29:38.265Z,24.7
2023-01-22T15:30:54.514Z,18
2023-01-22T15:32:10.754Z,36.2
2023-01-22T15:33:27.002Z,20.6
2023-01-22T15:34:42.256Z,19.3
2023-01-22T15:35:58.496Z,19.7
2023-01-22T15:37:14.734Z,20.6
2023-01-22T15:38:30.984Z,18.2
2023-01-22T15:39:47.206Z,18.3
2023-01-22T15:41:03.466Z,19.2
2023-01-22T15:42:19.697Z,18.4
2023-01-22T15:43:35.939Z,24.5
2023-01-22T15:44:52.169Z,19.5
2023-01-22T15:46:08.425Z,21.3
2023-01-22T15:47:24.657Z,23
2023-01-22T15:48:40.894Z,22.3
2023-01-22T15:49:57.144Z,19.8
2023-01-22T15:51:12.408Z,40.7
2023-01-22T15:52:28.649Z,48
2023-01-22T15:53:44.869Z,27
2023-01-22T15:55:01.128Z,23.7
2023-01-22T15:56:17.360Z,22.2
2023-01-22T15:57:33.610Z,21.4
2023-01-22T15:58:49.846Z,24.8
2023-01-22T16:00:06.080Z,23.9
2023-01-22T16:01:22.324Z,23.8
2023-01-22T16:02:38.608Z,24.5
2023-01-22T16:03:54.913Z,23.2
2023-01-22T16:05:11.152Z,23.1
2023-01-22T16:06:27.403Z,26.2
2023-01-22T16:07:42.659Z,26.1
2023-01-22T16:08:58.000Z,19.5
2023-01-22T16:10:15.188Z,21.5
2023-01-22T16:11:31.479Z,23.8
2023-01-22T16:12:47.775Z,27
2023-01-22T16:14:04.075Z,21.8
2023-01-22T16:15:20.366Z,21.7
2023-01-22T16:16:36.661Z,23.2
2023-01-22T16:17:52.950Z,21.1
2023-01-22T16:19:09.251Z,23.4
2023-01-22T16:20:25.543Z,22.5
2023-01-22T16:21:41.840Z,19.4
2023-01-22T16:22:58.138Z,20.9
2023-01-22T16:24:13.448Z,23.9
2023-01-22T16:25:29.729Z,22.1
2023-01-22T16:26:46.039Z,22.2
2023-01-22T16:28:02.341Z,22.2
2023-01-22T16:29:18.631Z,22.4
2023-01-22T16:30:34.912Z,22.1
2023-01-22T16:31:51.230Z,19.1
2023-01-22T16:33:07.501Z,21.3
2023-01-22T16:34:23.811Z,22.1
2023-01-22T16:35:40.104Z,20.1
2023-01-22T16:36:56.389Z,20.7
2023-01-22T16:38:12.696Z,20
2023-01-22T16:39:28.989Z,18.8
2023-01-22T16:40:44.297Z,19.1
2023-01-22T16:42:00.588Z,19.4
2023-01-22T16:43:16.872Z,19.5
2023-01-22T16:44:33.193Z,19.8
2023-01-22T16:45:49.460Z,20
2023-01-22T16:47:05.764Z,18.7
2023-01-22T16:48:22.067Z,17.5
2023-01-22T16:49:38.369Z,19
2023-01-22T16:50:54.655Z,18.7
2023-01-22T16:52:10.952Z,21.3
2023-01-22T16:53:27.235Z,18.1
2023-01-22T16:54:43.531Z,18.3
2023-01-22T16:55:59.840Z,18.4
2023-01-22T16:57:15.131Z,18.3
2023-01-22T16:58:31.428Z,18.4
2023-01-22T16:59:47.731Z,20.2
2023-01-22T17:01:04.020Z,21.2
2023-01-22T17:02:20.318Z,17.9
2023-01-22T17:03:36.612Z,19.8
2023-01-22T17:04:52.912Z,18.1
2023-01-22T17:06:09.207Z,18.5
2023-01-22T17:07:25.504Z,18.6
2023-01-22T17:08:41.789Z,19
2023-01-22T17:09:58.084Z,19.1
2023-01-22T17:11:14.367Z,21
2023-01-22T17:12:30.665Z,21.9
2023-01-22T17:13:45.992Z,20.5
2023-01-22T17:15:02.294Z,17.8
2023-01-22T17:16:18.562Z,20.4